New Hartford, New York
Current Conditions -  °F | °C
As of 2:53 AM on Tuesday 21 Oct 2014 (Local Time) from KRME Reporting Station
Light Rain Light Rain  
Wind Chill: 47°   Ceiling: 4800
Heat Index: 47°   Visibility: 10mi
Dew Point: 43°   Wind: 3mph
Humidity: 86%   Direction: 120°ESE
Pressure: 29.88"   Gusts: NA
Location:  43.07°N, 75.29°W
Report Text: KRME 210653Z AUTO 12003KT 10SM -RA BKN048 OVC060 08/06 A2988 RMK AO2 RAB0554E06B33 SLP119 P0000 T00830061
Loading
Personal Weather Stations






























Interactive Weather Map
Tropical Storm Tracking
New forecast layout! Learn more

10-Day Weather Forecast

Advertisements
Track Severe Weather on mobile